Time;durP1;ratioP1;P1;durP2;ratioP2;P2;SDS_P1;SDS_P2;PMS_P1;PMS_P2;Temp;Humidity;BMP_temperature;BMP_pressure;BME280_temperature;BME280_humidity;BME280_pressure;Samples;Min_cycle;Max_cycle;Signal;HPM_P1;HPM_P2
2021/12/12 00:02:11;;;;;;;11.60;3.47;;;;;;;12.72;100.00;101227.41;7389660;19;20025;-68
2021/12/12 00:04:52;;;;;;;14.32;5.00;;;;;;;12.73;99.81;101219.34;7396738;19;20014;-69
2021/12/12 00:07:26;;;;;;;8.70;3.65;;;;;;;12.74;99.74;101225.44;7391367;19;20014;-68
2021/12/12 00:09:59;;;;;;;12.05;2.88;;;;;;;12.76;99.56;101228.75;7395799;19;20010;-68
2021/12/12 00:12:29;;;;;;;16.30;4.22;;;;;;;12.76;99.87;101228.75;7393367;19;20033;-69
2021/12/12 00:14:57;;;;;;;15.45;4.50;;;;;;;12.75;99.56;101227.91;7394135;19;20014;-68
2021/12/12 00:17:26;;;;;;;16.15;5.18;;;;;;;12.76;99.62;101234.03;7390217;19;20097;-67
2021/12/12 00:19:54;;;;;;;17.80;3.88;;;;;;;12.76;99.48;101229.56;7391912;19;20014;-69
2021/12/12 00:22:25;;;;;;;9.85;2.33;;;;;;;12.76;99.12;101236.66;7393483;19;20010;-69
2021/12/12 00:24:53;;;;;;;37.08;7.72;;;;;;;12.78;99.37;101230.25;7396314;19;20022;-70
2021/12/12 00:27:22;;;;;;;17.85;5.55;;;;;;;12.81;99.39;101231.72;7389681;19;20007;-68
2021/12/12 00:29:50;;;;;;;10.65;3.42;;;;;;;12.83;99.50;101241.16;7391781;19;20041;-67
2021/12/12 00:32:22;;;;;;;25.30;6.47;;;;;;;12.83;99.15;101235.06;7389234;19;20039;-68
2021/12/12 00:34:53;;;;;;;9.85;2.50;;;;;;;12.82;99.13;101238.69;7391909;19;20360;-68
2021/12/12 00:37:21;;;;;;;80.50;15.20;;;;;;;12.86;99.30;101245.28;7390368;19;20345;-68
2021/12/12 00:39:53;;;;;;;13.45;3.60;;;;;;;12.86;99.25;101243.47;7388927;19;20022;-68
2021/12/12 00:42:24;;;;;;;40.80;11.10;;;;;;;12.89;99.19;101238.88;7390054;19;20785;-68
2021/12/12 00:44:55;;;;;;;11.85;2.60;;;;;;;12.86;98.97;101240.00;7390160;19;20428;-69
2021/12/12 00:47:23;;;;;;;9.23;2.88;;;;;;;12.82;98.74;101239.50;7391192;19;20397;-68
2021/12/12 00:50:10;;;;;;;13.07;5.22;;;;;;;12.84;98.65;101240.19;7389542;19;20042;-68
2021/12/12 00:52:38;;;;;;;13.27;4.07;;;;;;;12.82;98.85;101243.97;7389316;19;20010;-70
2021/12/12 00:55:06;;;;;;;14.23;3.15;;;;;;;12.80;98.69;101233.53;7388949;19;20038;-69
2021/12/12 00:57:33;;;;;;;15.18;3.08;;;;;;;12.80;98.67;101238.81;7388149;19;20002;-69
2021/12/12 01:00:00;;;;;;;50.38;8.50;;;;;;;12.81;98.61;101237.84;7391588;19;20100;-67
2021/12/12 01:02:30;;;;;;;13.40;2.83;;;;;;;12.82;98.80;101241.31;7391087;19;20570;-69
2021/12/12 01:05:00;;;;;;;18.15;5.00;;;;;;;12.86;98.75;101237.38;7390461;19;20006;-68
2021/12/12 01:07:32;;;;;;;10.82;2.53;;;;;;;12.88;98.84;101238.06;7392321;19;20014;-68
2021/12/12 01:10:08;;;;;;;18.77;4.50;;;;;;;12.88;99.01;101235.41;7390169;19;20019;-66
2021/12/12 01:12:37;;;;;;;64.93;6.28;;;;;;;12.88;98.68;101234.59;7387515;19;20090;-69
2021/12/12 01:15:12;;;;;;;12.13;4.60;;;;;;;12.90;99.00;101236.06;7387364;19;20339;-68
2021/12/12 01:17:42;;;;;;;13.27;4.30;;;;;;;12.92;99.00;101242.03;7389040;19;20023;-66
2021/12/12 01:20:17;;;;;;;31.15;7.10;;;;;;;12.93;98.78;101240.22;7389407;19;20082;-67
2021/12/12 01:22:44;;;;;;;12.45;3.78;;;;;;;12.94;98.98;101247.16;7388022;19;20014;-68
2021/12/12 01:25:20;;;;;;;11.32;2.33;;;;;;;12.94;98.90;101245.34;7387886;19;20555;-68
2021/12/12 01:27:48;;;;;;;7.68;1.90;;;;;;;12.96;98.86;101250.47;7387451;19;20085;-67
2021/12/12 01:30:18;;;;;;;8.60;1.77;;;;;;;12.95;98.64;101248.81;7388482;19;20010;-68
2021/12/12 01:32:47;;;;;;;16.38;5.15;;;;;;;12.92;98.37;101242.03;7390932;19;20335;-68
2021/12/12 01:35:18;;;;;;;15.38;3.60;;;;;;;12.92;98.31;101246.47;7387804;19;20021;-68
2021/12/12 01:40:34;;;;;;;9.52;1.92;;;;;;;12.95;98.68;101248.81;7389998;19;20011;-67
2021/12/12 01:43:09;;;;;;;11.80;2.33;;;;;;;12.97;98.79;101255.59;7387812;19;20006;-68
2021/12/12 01:45:45;;;;;;;22.38;7.05;;;;;;;12.96;98.39;101251.28;7390862;19;20082;-66
2021/12/12 01:48:25;;;;;;;9.75;1.80;;;;;;;12.98;98.58;101262.53;7387866;19;20485;-68
2021/12/12 01:50:56;;;;;;;6.95;1.13;;;;;;;12.98;98.44;101265.19;7388479;19;20015;-68
2021/12/12 01:53:27;;;;;;;19.63;4.85;;;;;;;12.97;98.48;101260.88;7388265;19;20018;-69
2021/12/12 01:56:06;;;;;;;10.45;1.85;;;;;;;12.98;98.76;101264.34;7386447;19;20041;-70
2021/12/12 01:58:38;;;;;;;16.92;4.22;;;;;;;12.97;98.74;101266.16;7385086;19;20030;-68
2021/12/12 02:01:10;;;;;;;8.98;1.73;;;;;;;12.99;98.69;101266.84;7387407;19;20091;-68
2021/12/12 02:03:43;;;;;;;12.68;3.15;;;;;;;12.98;98.87;101267.00;7389008;19;20035;-66
2021/12/12 02:06:14;;;;;;;32.13;9.95;;;;;;;12.98;98.87;101286.31;7387838;19;20037;-67
2021/12/12 02:08:42;;;;;;;12.85;1.63;;;;;;;12.98;98.93;101275.75;7389729;19;20017;-67
2021/12/12 02:11:16;;;;;;;13.88;1.40;;;;;;;13.01;99.17;101279.88;7385469;19;20379;-68
2021/12/12 02:13:47;;;;;;;9.73;1.98;;;;;;;13.00;99.08;101284.34;7384890;19;20011;-67
2021/12/12 02:16:15;;;;;;;34.63;6.70;;;;;;;13.03;98.90;101280.56;7387810;19;20021;-69
2021/12/12 02:18:47;;;;;;;39.17;6.85;;;;;;;13.05;99.49;101281.25;7388267;19;20014;-68
2021/12/12 02:21:30;;;;;;;41.55;6.43;;;;;;;13.05;99.60;101284.72;7391755;19;20356;-69
2021/12/12 02:37:12;;;;;;;19.35;3.53;;;;;;;12.96;100.00;101288.28;7390482;19;20420;-67
2021/12/12 02:39:40;;;;;;;22.40;4.63;;;;;;;12.97;99.81;101289.09;7393631;19;20019;-67
2021/12/12 02:42:14;;;;;;;9.52;1.00;;;;;;;12.93;99.79;101279.84;7394204;19;20014;-69
2021/12/12 02:44:43;;;;;;;21.67;7.30;;;;;;;12.91;99.94;101285.28;7392398;19;20014;-68
2021/12/12 02:47:18;;;;;;;18.58;3.20;;;;;;;12.91;99.68;101287.91;7394393;19;20362;-68
2021/12/12 02:52:24;;;;;;;60.47;9.10;;;;;;;12.91;99.50;101298.47;7392289;19;20413;-68
2021/12/12 02:54:52;;;;;;;20.95;3.17;;;;;;;12.95;100.00;101291.09;7393720;19;20405;-67
2021/12/12 02:57:20;;;;;;;16.23;2.08;;;;;;;12.93;99.92;101299.16;7393435;19;20022;-68
2021/12/12 02:59:50;;;;;;;87.45;8.30;;;;;;;12.90;99.58;101296.00;7393996;19;20114;-67
2021/12/12 03:02:27;;;;;;;17.55;1.73;;;;;;;12.92;99.74;101294.03;7391594;19;20098;-68
2021/12/12 03:04:58;;;;;;;34.17;4.25;;;;;;;12.96;99.86;101295.38;7393895;19;20074;-67
2021/12/12 03:07:26;;;;;;;8.73;0.80;;;;;;;12.99;99.97;101290.63;7395629;19;20021;-67
2021/12/12 03:09:56;;;;;;;17.92;3.05;;;;;;;12.99;99.68;101290.63;7394308;19;20011;-69
2021/12/12 03:12:31;;;;;;;23.60;4.15;;;;;;;12.98;99.86;101286.31;7394183;19;20015;-67
2021/12/12 03:15:03;;;;;;;10.05;1.20;;;;;;;13.00;99.72;101296.72;7390600;19;20003;-68
2021/12/12 03:17:32;;;;;;;38.75;6.78;;;;;;;13.00;100.00;101294.91;7393130;19;20015;-66
2021/12/12 03:20:10;;;;;;;11.60;1.73;;;;;;;13.01;100.00;101293.91;7391352;19;20462;-68
2021/12/12 03:22:37;;;;;;;21.23;1.65;;;;;;;13.02;100.00;101292.09;7393930;19;20014;-68
2021/12/12 03:25:07;;;;;;;16.13;4.20;;;;;;;12.99;99.86;101290.63;7397328;19;20011;-67
2021/12/12 03:27:35;;;;;;;11.38;1.45;;;;;;;12.98;99.88;101301.31;7391734;19;20475;-68
2021/12/12 03:30:04;;;;;;;13.15;2.50;;;;;;;12.99;99.89;101300.34;7391763;19;20006;-68
2021/12/12 03:32:32;;;;;;;13.98;1.98;;;;;;;13.04;100.00;101303.34;7390996;19;20018;-68
2021/12/12 03:35:00;;;;;;;150.75;11.07;;;;;;;13.04;100.00;101300.72;7388452;19;20014;-68
2021/12/12 03:37:30;;;;;;;121.47;7.47;;;;;;;13.05;100.00;101291.81;7391509;19;20014;-67
2021/12/12 03:40:00;;;;;;;10.35;2.03;;;;;;;13.02;99.87;101300.84;7393864;19;20029;-69
2021/12/12 03:42:30;;;;;;;42.13;4.32;;;;;;;13.03;99.90;101291.13;7392492;19;20571;-67
2021/12/12 03:44:59;;;;;;;16.33;2.65;;;;;;;13.02;99.99;101300.03;7395182;19;20010;-66
2021/12/12 03:47:29;;;;;;;148.43;14.43;;;;;;;13.05;100.00;101302.38;7390098;19;20074;-67
2021/12/12 03:49:58;;;;;;;16.30;2.25;;;;;;;13.07;100.00;101301.22;7390349;19;20007;-69
2021/12/12 03:52:26;;;;;;;9.55;1.20;;;;;;;13.08;100.00;101305.53;7391567;19;20022;-69
2021/12/12 03:54:59;;;;;;;47.35;4.38;;;;;;;13.09;100.00;101304.53;7392704;19;20016;-68
2021/12/12 03:57:30;;;;;;;10.15;1.70;;;;;;;13.09;100.00;101309.81;7392466;19;20018;-67
2021/12/12 04:00:03;;;;;;;166.82;9.80;;;;;;;13.10;100.00;101311.50;7393609;19;20438;-68
2021/12/12 04:02:30;;;;;;;13.85;1.90;;;;;;;13.08;100.00;101307.31;7394210;19;20042;-68
2021/12/12 04:04:57;;;;;;;10.00;0.90;;;;;;;13.08;100.00;101302.88;7392610;19;20042;-69
2021/12/12 04:07:27;;;;;;;28.33;4.07;;;;;;;13.11;100.00;101310.50;7391034;19;20010;-68
2021/12/12 04:09:56;;;;;;;10.93;2.03;;;;;;;13.13;100.00;101307.72;7389824;19;20086;-68
2021/12/12 04:12:24;;;;;;;143.57;7.00;;;;;;;13.14;100.00;101304.09;7389077;19;20003;-68
2021/12/12 04:14:54;;;;;;;8.73;2.10;;;;;;;13.15;100.00;101309.22;7391498;19;20018;-67
2021/12/12 04:17:25;;;;;;;10.55;0.75;;;;;;;13.15;100.00;101314.50;7389183;19;20014;-68
2021/12/12 04:19:55;;;;;;;18.75;3.13;;;;;;;13.17;100.00;101316.97;7391912;19;20010;-68
2021/12/12 04:22:23;;;;;;;12.75;1.70;;;;;;;13.16;100.00;101313.50;7390738;19;20011;-67
2021/12/12 04:24:54;;;;;;;8.20;1.98;;;;;;;13.17;100.00;101327.56;7394856;19;20018;-67
2021/12/12 04:27:23;;;;;;;8.88;1.65;;;;;;;13.13;100.00;101332.34;7391296;19;20007;-67
2021/12/12 04:29:52;;;;;;;8.52;1.58;;;;;;;13.14;100.00;101328.72;7390250;19;20010;-70
2021/12/12 04:32:24;;;;;;;18.02;1.95;;;;;;;13.14;100.00;101334.00;7392519;19;20017;-67
2021/12/12 04:34:56;;;;;;;5.93;1.10;;;;;;;13.15;100.00;101338.28;7387305;19;20468;-68
2021/12/12 04:37:24;;;;;;;17.27;2.47;;;;;;;13.16;100.00;101325.88;7387451;19;20018;-68
2021/12/12 04:39:55;;;;;;;12.55;2.22;;;;;;;13.20;100.00;101327.25;7389073;19;20022;-67
2021/12/12 04:42:31;;;;;;;5.35;0.88;;;;;;;13.21;100.00;101340.28;7389989;19;20010;-68
2021/12/12 04:45:19;;;;;;;7.30;1.10;;;;;;;13.20;100.00;101332.53;7388507;19;20496;-67
2021/12/12 04:50:37;;;;;;;8.95;1.35;;;;;;;13.23;100.00;101342.78;7391716;19;20021;-67
2021/12/12 04:53:12;;;;;;;9.13;0.98;;;;;;;13.28;100.00;101343.13;7389393;19;20018;-67
2021/12/12 04:55:47;;;;;;;25.77;4.10;;;;;;;13.29;100.00;101342.16;7385568;19;20141;-67
2021/12/12 04:58:22;;;;;;;8.23;1.27;;;;;;;13.26;100.00;101348.56;7387353;19;20498;-68
2021/12/12 05:00:56;;;;;;;3.38;0.98;;;;;;;13.24;100.00;101347.09;7388015;19;20025;-67
2021/12/12 05:03:36;;;;;;;94.93;9.73;;;;;;;13.23;100.00;101348.06;7388919;19;20006;-67
2021/12/12 05:06:15;;;;;;;9.23;2.25;;;;;;;13.25;100.00;101346.94;7390684;19;20827;-67
2021/12/12 05:08:46;;;;;;;9.00;2.03;;;;;;;13.25;100.00;101351.41;7391620;19;20329;-68
2021/12/12 05:11:23;;;;;;;7.75;2.35;;;;;;;13.23;100.00;101356.81;7387766;19;20412;-67
2021/12/12 05:13:55;;;;;;;9.50;2.17;;;;;;;13.23;100.00;101358.63;7387049;19;20014;-67
2021/12/12 05:16:28;;;;;;;8.68;3.88;;;;;;;13.24;100.00;101360.31;7389031;19;20678;-67
2021/12/12 05:19:05;;;;;;;7.18;0.90;;;;;;;13.25;100.00;101357.50;7386997;19;20621;-67
2021/12/12 05:21:37;;;;;;;36.58;3.45;;;;;;;13.26;100.00;101358.31;7389369;19;20470;-67
2021/12/12 05:24:13;;;;;;;4.63;1.08;;;;;;;13.26;100.00;101363.59;7392126;19;20534;-68
2021/12/12 05:26:49;;;;;;;7.60;2.60;;;;;;;13.27;100.00;101381.13;7389082;19;20047;-67
2021/12/12 05:29:29;;;;;;;4.35;1.83;;;;;;;13.25;100.00;101378.66;7389775;19;20074;-67
2021/12/12 05:32:01;;;;;;;21.55;4.45;;;;;;;13.25;100.00;101376.00;7388956;19;20010;-67
2021/12/12 05:34:32;;;;;;;13.68;4.93;;;;;;;13.27;100.00;101378.47;7387955;19;20018;-67
2021/12/12 05:37:01;;;;;;;8.15;1.55;;;;;;;13.28;100.00;101380.97;7388575;19;20010;-68
2021/12/12 05:39:33;;;;;;;9.18;1.73;;;;;;;13.29;100.00;101381.81;7388453;19;20009;-68
2021/12/12 05:42:01;;;;;;;8.53;1.20;;;;;;;13.31;100.00;101376.38;7388549;19;20447;-67
2021/12/12 05:44:30;;;;;;;17.83;2.80;;;;;;;13.32;100.00;101378.84;7389864;19;20014;-66
2021/12/12 05:47:00;;;;;;;8.85;2.38;;;;;;;13.34;100.00;101376.88;7388510;19;20006;-69
2021/12/12 05:49:28;;;;;;;6.18;1.00;;;;;;;13.34;100.00;101378.69;7386736;19;20050;-67
2021/12/12 05:51:57;;;;;;;5.38;1.17;;;;;;;13.34;100.00;101376.03;7387059;19;20479;-69
2021/12/12 05:54:27;;;;;;;6.00;1.08;;;;;;;13.34;100.00;101378.69;7386340;19;20022;-68
2021/12/12 05:56:54;;;;;;;12.05;2.88;;;;;;;13.35;100.00;101386.47;7387853;19;20011;-68
2021/12/12 05:59:21;;;;;;;6.90;1.08;;;;;;;13.36;100.00;101382.81;7390878;19;20078;-70
2021/12/12 06:01:50;;;;;;;6.25;1.05;;;;;;;13.37;100.00;101388.94;7386709;19;20010;-69
2021/12/12 06:04:18;;;;;;;64.40;5.85;;;;;;;13.37;100.00;101391.56;7386022;19;20082;-67
2021/12/12 06:06:46;;;;;;;8.23;1.50;;;;;;;13.41;100.00;101400.88;7387859;19;20336;-67
2021/12/12 06:09:16;;;;;;;10.60;2.03;;;;;;;13.41;100.00;101403.53;7391172;19;20006;-67
2021/12/12 06:11:48;;;;;;;5.25;2.08;;;;;;;13.41;100.00;101409.59;7386744;19;20042;-67
2021/12/12 06:14:16;;;;;;;86.65;6.05;;;;;;;13.43;100.00;101398.88;7386611;19;20023;-67
2021/12/12 06:16:45;;;;;;;23.08;4.85;;;;;;;13.44;100.00;101408.47;7386397;19;20337;-68
2021/12/12 06:19:18;;;;;;;4.15;0.75;;;;;;;13.44;100.00;101405.84;7389032;19;20011;-68
2021/12/12 06:21:46;;;;;;;;;;;;;;;13.46;100.00;101409.16;7388887;19;20018;-70
2021/12/12 06:24:13;;;;;;;5.53;0.73;;;;;;;13.44;100.00;101413.78;7387205;19;20341;-68
2021/12/12 06:26:40;;;;;;;75.60;9.32;;;;;;;13.45;100.00;101402.22;7388713;19;20034;-68
2021/12/12 06:29:09;;;;;;;8.18;1.75;;;;;;;13.44;100.00;101411.97;7391321;19;20031;-68
2021/12/12 06:31:41;;;;;;;3.08;0.50;;;;;;;13.46;100.00;101417.09;7385835;19;20017;-68
2021/12/12 06:34:11;;;;;;;3.78;0.60;;;;;;;13.47;100.00;101416.09;7387039;19;20043;-71
2021/12/12 06:36:40;;;;;;;2.53;0.47;;;;;;;13.45;100.00;101416.25;7386956;19;20070;-68
2021/12/12 06:39:10;;;;;;;13.43;1.58;;;;;;;13.46;100.00;101414.44;7383623;19;20007;-67
2021/12/12 06:41:41;;;;;;;3.40;0.60;;;;;;;13.46;100.00;101423.19;7388619;19;20019;-68
2021/12/12 06:44:13;;;;;;;4.15;0.65;;;;;;;13.46;100.00;101420.53;7387958;19;20007;-69
2021/12/12 06:46:42;;;;;;;5.60;0.80;;;;;;;13.45;100.00;101418.06;7385391;19;20797;-68
2021/12/12 06:49:12;;;;;;;3.33;0.52;;;;;;;13.48;100.00;101420.38;7386657;19;20078;-68
2021/12/12 06:51:44;;;;;;;11.65;1.77;;;;;;;13.49;100.00;101416.78;7390034;19;20022;-68
2021/12/12 06:54:16;;;;;;;5.90;0.83;;;;;;;13.50;100.00;101429.00;7386857;19;20020;-68
2021/12/12 06:56:43;;;;;;;13.30;2.38;;;;;;;13.51;100.00;101425.38;7386243;19;20275;-67
2021/12/12 06:59:11;;;;;;;10.70;1.95;;;;;;;13.50;100.00;101432.50;7389829;19;20056;-65
2021/12/12 07:01:39;;;;;;;3.33;0.40;;;;;;;13.52;100.00;101432.31;7387115;19;20352;-70
2021/12/12 07:04:09;;;;;;;23.65;3.63;;;;;;;13.53;100.00;101432.16;7384605;19;20002;-66
2021/12/12 07:06:38;;;;;;;2.83;0.40;;;;;;;13.57;100.00;101435.31;7386008;19;20019;-67
2021/12/12 07:09:09;;;;;;;3.38;0.50;;;;;;;13.57;100.00;101433.50;7387369;19;20018;-67
2021/12/12 07:11:40;;;;;;;9.73;3.05;;;;;;;13.59;100.00;101438.63;7392891;19;20146;-67
2021/12/12 07:14:09;;;;;;;4.20;0.73;;;;;;;13.60;100.00;101448.22;7394075;19;20021;-68
2021/12/12 07:16:38;;;;;;;9.00;1.92;;;;;;;13.60;100.00;101448.22;7394074;19;20011;-67
2021/12/12 07:19:06;;;;;;;6.43;0.85;;;;;;;13.61;100.00;101469.22;7393803;19;20653;-68
2021/12/12 07:21:35;;;;;;;45.40;5.45;;;;;;;13.62;100.00;101462.94;7392066;19;20010;-69
2021/12/12 07:24:05;;;;;;;3.47;0.50;;;;;;;13.63;100.00;101467.25;7395545;19;20658;-69
2021/12/12 07:26:32;;;;;;;1.30;0.30;;;;;;;13.62;100.00;101470.88;7395456;19;20011;-68
2021/12/12 07:29:03;;;;;;;10.00;1.95;;;;;;;13.66;100.00;101474.84;7394246;19;20366;-67
2021/12/12 07:31:35;;;;;;;3.97;0.65;;;;;;;13.69;100.00;101473.72;7391525;19;20014;-68
2021/12/12 07:34:06;;;;;;;5.57;0.40;;;;;;;13.70;100.00;101480.69;7391326;19;20011;-68
2021/12/12 07:36:38;;;;;;;9.65;0.90;;;;;;;13.72;100.00;101481.34;7389789;19;20042;-67
2021/12/12 07:39:09;;;;;;;5.82;0.77;;;;;;;13.73;100.00;101480.34;7391637;19;20117;-67
2021/12/12 07:41:39;;;;;;;12.75;2.38;;;;;;;13.75;100.00;101485.50;7396444;19;20483;-68
2021/12/12 07:44:11;;;;;;;1.90;0.20;;;;;;;13.76;100.00;101490.66;7391928;19;20031;-68
2021/12/12 07:46:42;;;;;;;;;;;;;;;13.79;99.88;101492.97;7393062;19;20110;-67
2021/12/12 07:49:11;;;;;;;1.75;0.20;;;;;;;13.78;100.00;101498.41;7390577;19;19982;-69
2021/12/12 07:51:41;;;;;;;69.85;7.78;;;;;;;13.77;99.61;101504.66;7393668;19;20361;-67
2021/12/12 07:54:10;;;;;;;9.10;1.13;;;;;;;13.79;99.76;101502.72;7391963;19;20045;-68
2021/12/12 07:56:40;;;;;;;2.40;0.32;;;;;;;13.81;99.84;101509.53;7389969;19;20314;-67
2021/12/12 07:59:09;;;;;;;6.07;2.05;;;;;;;13.84;99.30;101513.66;7394680;19;20496;-68
2021/12/12 08:01:41;;;;;;;2.63;0.30;;;;;;;13.85;99.36;101518.78;7393356;19;20022;-68
2021/12/12 08:04:11;;;;;;;15.43;4.45;;;;;;;13.88;99.26;101512.34;7391857;19;20015;-68
2021/12/12 08:06:39;;;;;;;7.78;1.88;;;;;;;13.89;98.96;101517.50;7393332;19;20014;-68
2021/12/12 08:09:07;;;;;;;3.90;0.40;;;;;;;13.91;98.90;101525.28;7396044;19;20018;-67
2021/12/12 08:11:36;;;;;;;14.43;0.93;;;;;;;13.93;98.64;101533.88;7393666;19;20523;-68
2021/12/12 08:14:10;;;;;;;3.40;0.40;;;;;;;13.95;98.57;101535.38;7393168;19;20030;-67
2021/12/12 08:16:42;;;;;;;6.95;3.28;;;;;;;13.95;98.35;101535.38;7393785;19;20034;-67
2021/12/12 08:19:19;;;;;;;;;;;;;;;;;;;;;
2021/12/12 08:21:47;;;;;;;4.82;1.63;;;;;;;13.98;97.96;101537.72;7391213;19;20033;-67
2021/12/12 08:24:16;;;;;;;6.28;0.80;;;;;;;14.01;97.99;101536.56;7391885;19;20006;-66
2021/12/12 08:26:46;;;;;;;1.83;0.30;;;;;;;14.03;98.14;101542.53;7390376;19;20014;-68
2021/12/12 08:29:15;;;;;;;5.43;0.60;;;;;;;14.06;98.22;101547.53;7393525;19;20372;-67
2021/12/12 08:31:43;;;;;;;2.20;0.30;;;;;;;14.07;98.13;101546.50;7393268;19;20346;-69
2021/12/12 08:34:12;;;;;;;9.30;2.35;;;;;;;14.08;98.01;101546.34;7390706;19;20401;-67
2021/12/12 08:36:51;;;;;;;7.93;2.05;;;;;;;14.06;97.97;101556.28;7389138;19;20018;-69
2021/12/12 08:39:21;;;;;;;3.25;0.47;;;;;;;14.06;97.28;101552.81;7390326;19;20026;-67
2021/12/12 08:41:51;;;;;;;73.55;10.55;;;;;;;14.04;96.89;101560.06;7390683;19;20010;-67
2021/12/12 08:44:27;;;;;;;7.32;0.60;;;;;;;14.06;97.15;101555.47;7388367;19;20460;-66
2021/12/12 08:46:57;;;;;;;7.53;1.83;;;;;;;14.07;96.73;101559.75;7389657;19;20007;-69
2021/12/12 08:49:28;;;;;;;8.65;0.70;;;;;;;14.07;96.94;101557.09;7391477;19;20078;-68
2021/12/12 08:51:59;;;;;;;4.80;0.30;;;;;;;14.07;96.85;101563.22;7389797;19;20507;-68
2021/12/12 08:54:27;;;;;;;37.38;5.03;;;;;;;14.10;97.34;101567.38;7389473;19;20006;-69
2021/12/12 08:57:04;;;;;;;3.40;0.60;;;;;;;14.11;97.48;101572.53;7387980;19;20495;-68
2021/12/12 08:59:36;;;;;;;18.90;4.05;;;;;;;14.11;97.42;101569.06;7392691;19;20034;-68
2021/12/12 09:02:07;;;;;;;8.77;2.33;;;;;;;14.06;96.98;101566.88;7390214;19;20011;-68
2021/12/12 09:04:42;;;;;;;5.18;0.75;;;;;;;14.04;96.91;101571.47;7390857;19;20533;-67
2021/12/12 09:07:15;;;;;;;42.42;11.48;;;;;;;14.01;96.25;101577.09;7394109;19;20011;-66
2021/12/12 09:09:50;;;;;;;21.77;3.80;;;;;;;14.01;96.89;101574.47;7389860;19;20007;-67
2021/12/12 09:12:29;;;;;;;6.80;0.82;;;;;;;14.00;96.46;101577.25;7391180;19;20010;-67
2021/12/12 09:15:07;;;;;;;5.35;0.70;;;;;;;13.99;96.44;101581.72;7390911;19;20049;-67
2021/12/12 09:17:44;;;;;;;11.95;3.80;;;;;;;13.99;96.30;101581.72;7393979;19;20742;-68
2021/12/12 09:20:23;;;;;;;5.25;0.88;;;;;;;13.96;96.26;101575.91;7389121;19;20364;-69
2021/12/12 09:23:02;;;;;;;7.75;1.00;;;;;;;13.93;96.15;101586.78;7390782;19;20011;-67
2021/12/12 09:25:40;;;;;;;6.03;1.33;;;;;;;13.92;96.12;101587.75;7389873;19;20489;-68
2021/12/12 09:28:19;;;;;;;12.13;0.55;;;;;;;13.91;96.17;101586.97;7388785;19;20020;-69
2021/12/12 09:30:51;;;;;;;8.45;0.82;;;;;;;13.88;96.28;101591.72;7390076;19;20021;-68
2021/12/12 09:33:29;;;;;;;4.93;0.63;;;;;;;13.86;96.24;101591.88;7388119;19;20014;-68
2021/12/12 09:36:06;;;;;;;9.63;2.53;;;;;;;13.88;96.22;101597.84;7387580;19;20023;-69
2021/12/12 09:38:42;;;;;;;9.38;0.70;;;;;;;13.90;96.63;101592.41;7391439;19;20421;-68
2021/12/12 09:41:26;;;;;;;49.72;4.97;;;;;;;13.90;96.68;101593.22;7391804;19;20444;-68
2021/12/12 09:44:08;;;;;;;8.05;1.88;;;;;;;13.91;96.91;101594.06;7388337;19;20018;-69
2021/12/12 09:52:37;;;;;;;10.43;1.17;;;;;;;13.89;96.40;101604.78;7393610;19;20727;-69
2021/12/12 09:55:17;;;;;;;4.18;0.50;;;;;;;13.86;96.21;101613.06;7387790;19;20082;-70
2021/12/12 09:57:55;;;;;;;5.82;0.50;;;;;;;13.89;96.08;101617.19;7389298;19;20019;-68
2021/12/12 10:00:27;;;;;;;11.27;1.20;;;;;;;13.92;96.22;101607.13;7386286;19;20418;-69
2021/12/12 10:03:10;;;;;;;9.43;1.20;;;;;;;13.98;96.28;101621.53;7386699;19;20003;-68
2021/12/12 10:05:54;;;;;;;12.38;1.23;;;;;;;13.98;96.19;101624.19;7390805;19;20165;-67
2021/12/12 10:08:36;;;;;;;10.02;0.60;;;;;;;14.00;95.61;101632.81;7387852;19;20554;-66
2021/12/12 10:11:17;;;;;;;7.05;0.60;;;;;;;14.01;95.60;101634.47;7388907;19;20086;-68
2021/12/12 10:13:54;;;;;;;8.38;0.90;;;;;;;14.01;95.56;101639.78;7388426;19;20030;-70
2021/12/12 10:16:35;;;;;;;8.75;0.82;;;;;;;14.03;95.39;101643.09;7385815;19;20011;-68
2021/12/12 10:19:09;;;;;;;10.55;1.40;;;;;;;14.05;95.40;101646.41;7386089;19;20014;-68
2021/12/12 10:21:36;;;;;;;10.68;0.90;;;;;;;14.10;95.48;101628.25;7388596;19;20052;-68
2021/12/12 10:24:15;;;;;;;16.80;4.38;;;;;;;14.13;95.24;101646.47;7390491;19;20408;-69
2021/12/12 10:26:48;;;;;;;12.80;1.48;;;;;;;14.18;95.47;101649.47;7388573;19;20078;-68
2021/12/12 10:29:26;;;;;;;8.07;1.10;;;;;;;14.16;94.77;101640.03;7387238;19;20019;-68
2021/12/12 10:32:07;;;;;;;11.27;1.20;;;;;;;14.17;94.93;101642.50;7387884;19;20032;-69
2021/12/12 10:34:43;;;;;;;11.45;2.00;;;;;;;14.20;94.84;101644.88;7388059;19;20111;-70
2021/12/12 10:37:19;;;;;;;14.68;3.35;;;;;;;14.25;94.98;101647.03;7385521;19;20022;-68
2021/12/12 10:39:59;;;;;;;11.98;1.30;;;;;;;14.25;94.37;101644.38;7385302;19;20017;-67
2021/12/12 10:42:33;;;;;;;17.23;5.88;;;;;;;14.32;94.67;101643.63;7390737;19;20016;-66
2021/12/12 10:45:09;;;;;;;7.70;1.45;;;;;;;14.34;94.47;101643.44;7387883;19;20013;-67
2021/12/12 10:47:48;;;;;;;8.10;1.25;;;;;;;14.34;93.87;101641.63;7394971;19;20010;-70
2021/12/12 10:50:27;;;;;;;15.77;2.25;;;;;;;14.34;93.40;101643.44;7395800;19;20011;-67
2021/12/12 10:52:59;;;;;;;9.75;1.08;;;;;;;14.37;93.65;101643.19;7397782;19;20353;-71
2021/12/12 10:55:33;;;;;;;13.18;3.25;;;;;;;14.41;93.64;101642.72;7395712;19;20014;-69
2021/12/12 10:58:07;;;;;;;8.50;1.20;;;;;;;14.43;93.82;101632.75;7393673;19;20383;-69
2021/12/12 11:00:41;;;;;;;12.18;2.97;;;;;;;14.44;93.17;101636.25;7393420;19;20017;-69
2021/12/12 11:03:19;;;;;;;8.93;1.33;;;;;;;14.45;93.20;101635.25;7393106;19;20010;-67
2021/12/12 11:05:55;;;;;;;11.80;1.50;;;;;;;14.46;93.22;101635.13;7395872;19;20328;-68
2021/12/12 11:08:33;;;;;;;15.13;4.18;;;;;;;14.48;93.71;101627.81;7395967;19;20010;-69
2021/12/12 11:11:16;;;;;;;10.50;1.20;;;;;;;14.50;93.40;101625.88;7394661;19;20021;-69
2021/12/12 11:14:03;;;;;;;13.50;2.42;;;;;;;14.51;93.21;101627.53;7391504;19;20344;-67
2021/12/12 11:16:36;;;;;;;9.82;1.55;;;;;;;14.52;92.91;101625.72;7391884;19;20003;-68
2021/12/12 11:19:13;;;;;;;19.35;2.80;;;;;;;14.48;92.84;101627.00;7395713;19;20045;-69
2021/12/12 11:21:46;;;;;;;12.75;1.60;;;;;;;14.49;93.24;101632.13;7393251;19;20075;-69
2021/12/12 11:24:25;;;;;;;9.57;1.70;;;;;;;14.47;92.90;101631.47;7392125;19;20010;-67
2021/12/12 11:27:01;;;;;;;15.95;2.50;;;;;;;14.50;93.29;101636.47;7395886;19;20021;-67
2021/12/12 11:29:37;;;;;;;12.63;1.55;;;;;;;14.52;93.32;101623.06;7392122;19;20010;-67
2021/12/12 11:32:10;;;;;;;9.15;2.05;;;;;;;14.53;93.35;101635.28;7396164;19;20021;-68
2021/12/12 11:34:47;;;;;;;9.05;1.60;;;;;;;14.55;93.22;101628.88;7393837;19;20079;-69
2021/12/12 11:37:17;;;;;;;15.27;1.77;;;;;;;14.55;92.72;101623.56;7390467;19;20505;-69
2021/12/12 11:40:02;;;;;;;14.55;2.15;;;;;;;14.60;92.94;101628.38;7397078;19;20011;-67
2021/12/12 11:42:42;;;;;;;9.88;0.95;;;;;;;14.62;92.85;101626.41;7397699;19;20489;-68
2021/12/12 11:45:22;;;;;;;12.50;1.83;;;;;;;14.68;93.53;101625.75;7393488;19;20018;-67
2021/12/12 11:48:01;;;;;;;15.05;1.83;;;;;;;14.70;93.30;101628.25;7392762;19;20077;-68
2021/12/12 11:50:38;;;;;;;11.70;2.05;;;;;;;14.73;93.08;101620.81;7392340;19;20017;-69
2021/12/12 11:53:15;;;;;;;13.35;1.15;;;;;;;14.74;92.25;101625.13;7394007;19;20360;-70
2021/12/12 11:55:50;;;;;;;11.80;2.05;;;;;;;14.74;92.18;101619.00;7390311;19;20011;-68
2021/12/12 11:58:21;;;;;;;13.13;1.17;;;;;;;14.76;91.77;101628.44;7393598;19;20020;-69
2021/12/12 12:00:59;;;;;;;16.27;2.00;;;;;;;14.79;91.84;101622.81;7391109;19;20062;-68
2021/12/12 12:03:57;;;;;;;5.95;1.30;;;;;;;14.82;91.66;101630.47;7396710;19;20025;-69
2021/12/12 12:06:40;;;;;;;14.30;1.38;;;;;;;14.82;91.53;101629.63;7395013;19;20021;-67
2021/12/12 12:09:10;;;;;;;19.93;6.43;;;;;;;14.84;91.92;101625.81;7395262;19;20014;-68
2021/12/12 12:11:48;;;;;;;16.45;1.73;;;;;;;14.85;91.88;101629.31;7393789;19;20074;-67